createdAt,value
2023-04-09T05:00:10.066Z,9.60
2023-04-09T05:05:15.454Z,9.60
2023-04-09T05:10:19.983Z,9.60
2023-04-09T05:15:23.774Z,9.60
2023-04-09T05:20:30.315Z,9.60
2023-04-09T05:25:38.178Z,9.60
2023-04-09T05:30:43.298Z,9.70
2023-04-09T05:35:50.149Z,9.70
2023-04-09T05:40:53.766Z,9.70
2023-04-09T05:45:57.399Z,9.70
2023-04-09T05:51:02.913Z,9.70
2023-04-09T05:56:15.441Z,9.70
2023-04-09T06:01:22.301Z,9.80
2023-04-09T06:06:27.926Z,9.90
2023-04-09T06:11:31.714Z,9.90
2023-04-09T06:16:36.550Z,10.00
2023-04-09T06:21:42.450Z,10.10
2023-04-09T06:26:45.995Z,10.10
2023-04-09T06:31:49.867Z,10.20
2023-04-09T06:36:54.783Z,10.30
2023-04-09T06:41:58.307Z,10.40
2023-04-09T06:47:03.365Z,10.40
2023-04-09T06:52:08.528Z,10.50
2023-04-09T06:57:12.108Z,10.50
2023-04-09T07:02:15.874Z,10.70
2023-04-09T07:07:20.973Z,10.80
2023-04-09T07:12:30.974Z,10.90
2023-04-09T07:17:35.137Z,11.10
2023-04-09T07:22:40.088Z,11.30
2023-04-09T07:27:44.566Z,11.40
2023-04-09T07:32:47.992Z,11.60
2023-04-09T07:37:52.889Z,11.80
2023-04-09T07:42:58.161Z,12.10
2023-04-09T07:48:01.828Z,12.40
2023-04-09T07:53:06.777Z,12.60
2023-04-09T07:58:10.307Z,12.90
2023-04-09T08:03:14.126Z,13.10
2023-04-09T08:08:19.923Z,13.30
2023-04-09T08:13:24.660Z,13.40
2023-04-09T08:18:28.179Z,13.70
2023-04-09T08:23:33.116Z,14.00
2023-04-09T08:28:36.628Z,14.40
2023-04-09T08:33:40.594Z,14.80
2023-04-09T08:38:47.109Z,15.10
2023-04-09T08:43:57.839Z,15.50
2023-04-09T08:49:03.056Z,15.90
2023-04-09T08:54:08.277Z,16.40
2023-04-09T08:59:11.866Z,16.90
2023-04-09T09:04:15.454Z,17.50
2023-04-09T09:09:20.471Z,18.00
2023-04-09T09:14:24.390Z,18.70
2023-04-09T09:19:31.467Z,19.50
2023-04-09T09:24:49.661Z,20.20
2023-04-09T09:29:53.876Z,21.00
2023-04-09T09:35:03.671Z,21.60
2023-04-09T09:40:10.093Z,22.30
2023-04-09T09:45:20.674Z,22.70
2023-04-09T09:50:26.454Z,23.00
2023-04-09T09:55:33.066Z,23.00
2023-04-09T10:00:38.164Z,23.90
2023-04-09T10:05:42.796Z,24.00
2023-04-09T10:10:48.605Z,24.10
2023-04-09T10:15:53.222Z,24.40
2023-04-09T10:21:00.329Z,25.20
2023-04-09T10:26:06.040Z,25.20
2023-04-09T10:31:09.603Z,25.40
2023-04-09T10:36:14.117Z,26.10
2023-04-09T10:41:26.340Z,26.50
2023-04-09T10:46:31.326Z,26.70
2023-04-09T10:51:38.748Z,26.30
2023-04-09T10:57:14.137Z,25.80
2023-04-09T11:02:55.342Z,25.50
2023-04-09T11:08:05.726Z,25.90
2023-04-09T11:13:13.156Z,25.90
2023-04-09T11:18:17.170Z,25.40
2023-04-09T11:23:21.219Z,25.30
2023-04-09T11:28:27.340Z,25.50
2023-04-09T11:33:34.419Z,25.20
2023-04-09T11:38:38.963Z,25.50
2023-04-09T11:43:43.851Z,25.50
2023-04-09T11:48:48.093Z,26.10
2023-04-09T11:53:51.510Z,26.20
2023-04-09T11:58:56.531Z,26.50
2023-04-09T12:04:01.352Z,26.70
2023-04-09T12:09:05.176Z,27.00
2023-04-09T12:14:14.302Z,26.80
2023-04-09T12:19:19.285Z,26.30
2023-04-09T12:24:25.536Z,25.90
2023-04-09T12:29:30.690Z,25.90
2023-04-09T12:34:34.212Z,26.20
2023-04-09T12:39:37.751Z,26.30
2023-04-09T12:44:42.634Z,26.40
2023-04-09T12:49:46.790Z,26.40
2023-04-09T12:54:50.102Z,26.10
2023-04-09T12:59:54.986Z,25.90
2023-04-09T13:04:58.556Z,25.30
2023-04-09T13:10:02.060Z,25.20
2023-04-09T13:15:08.139Z,24.90
2023-04-09T13:20:12.197Z,24.80
2023-04-09T13:25:15.786Z,25.00
2023-04-09T13:30:22.928Z,24.50
2023-04-09T13:35:26.490Z,24.30
2023-04-09T13:40:30.174Z,24.30
2023-04-09T13:45:35.425Z,24.30
2023-04-09T13:50:38.971Z,24.40
2023-04-09T13:55:43.063Z,24.30
2023-04-09T14:00:48.832Z,24.20
2023-04-09T14:05:52.340Z,24.10
2023-04-09T14:10:56.800Z,23.90
2023-04-09T14:16:01.784Z,23.80
2023-04-09T14:21:06.272Z,23.70
2023-04-09T14:26:12.096Z,23.50
2023-04-09T14:31:20.356Z,23.10
2023-04-09T14:36:23.933Z,22.70
2023-04-09T14:41:27.517Z,22.60
2023-04-09T14:46:32.586Z,22.40
2023-04-09T14:51:37.326Z,22.30
2023-04-09T14:56:41.138Z,22.30
2023-04-09T15:01:46.459Z,22.20
2023-04-09T15:06:50.069Z,22.10
2023-04-09T15:11:54.189Z,22.00
2023-04-09T15:16:59.215Z,21.90
2023-04-09T15:22:02.812Z,21.90
2023-04-09T15:27:06.471Z,21.70
2023-04-09T15:32:11.451Z,21.70
2023-04-09T15:37:15.025Z,21.60
2023-04-09T15:42:22.609Z,21.60
2023-04-09T15:47:27.660Z,21.70
2023-04-09T15:52:31.368Z,21.60
2023-04-09T15:57:34.902Z,21.60
2023-04-09T16:02:40.896Z,21.70
2023-04-09T16:07:44.787Z,21.50
2023-04-09T16:12:48.802Z,21.50
2023-04-09T16:17:53.679Z,21.50
2023-04-09T16:22:57.537Z,21.40
2023-04-09T16:28:01.029Z,21.50
2023-04-09T16:33:06.472Z,21.60
2023-04-09T16:38:10.446Z,21.50
2023-04-09T16:43:14.049Z,21.50
2023-04-09T16:48:18.982Z,21.40
2023-04-09T16:53:22.527Z,21.40
2023-04-09T16:58:26.155Z,21.40
2023-04-09T17:03:31.263Z,21.30
2023-04-09T17:08:36.003Z,21.20
2023-04-09T17:13:39.500Z,21.00
2023-04-09T17:18:45.358Z,21.00
2023-04-09T17:23:49.233Z,21.00
2023-04-09T17:28:53.129Z,21.00
2023-04-09T17:33:58.240Z,20.80
2023-04-09T17:39:01.875Z,20.80
2023-04-09T17:44:05.619Z,20.70
2023-04-09T17:49:10.803Z,20.70
2023-04-09T17:54:14.892Z,20.60
2023-04-09T17:59:18.553Z,20.50
2023-04-09T18:04:24.324Z,20.50
2023-04-09T18:09:28.152Z,20.40
2023-04-09T18:14:32.590Z,20.30
2023-04-09T18:19:37.413Z,20.20
2023-04-09T18:24:40.797Z,20.20
2023-04-09T18:29:44.210Z,20.10
2023-04-09T18:34:49.143Z,20.00
2023-04-09T18:39:52.549Z,19.90
2023-04-09T18:44:56.433Z,19.80
2023-04-09T18:50:01.323Z,19.70
2023-04-09T18:55:04.748Z,19.60
2023-04-09T19:00:08.734Z,19.50
2023-04-09T19:05:14.190Z,19.30
2023-04-09T19:10:17.493Z,19.20
2023-04-09T19:15:20.994Z,19.00
2023-04-09T19:20:26.393Z,18.90
2023-04-09T19:25:29.831Z,18.70
2023-04-09T19:30:33.316Z,18.70
2023-04-09T19:35:41.055Z,18.60
2023-04-09T19:40:44.491Z,18.50
2023-04-09T19:45:47.810Z,17.80
2023-04-09T19:50:52.635Z,18.30
2023-04-09T19:55:55.929Z,18.30
2023-04-09T20:00:59.247Z,18.20
2023-04-09T20:06:09.233Z,18.10
2023-04-09T20:11:16.598Z,18.00
2023-04-09T20:16:20.211Z,17.90
2023-04-09T20:21:24.972Z,17.70
2023-04-09T20:26:28.638Z,17.60
2023-04-09T20:31:34.935Z,17.60
2023-04-09T20:36:43.607Z,17.60
2023-04-09T20:41:47.248Z,17.60
2023-04-09T20:46:50.855Z,17.60
2023-04-09T20:51:55.876Z,17.60
2023-04-09T20:57:00.286Z,17.50
2023-04-09T21:02:04.011Z,17.50
2023-04-09T21:07:08.824Z,17.50
2023-04-09T21:12:12.149Z,17.40
2023-04-09T21:17:15.446Z,17.40
2023-04-09T21:22:20.703Z,17.30
2023-04-09T21:27:24.034Z,17.30
2023-04-09T21:32:27.425Z,17.30
2023-04-09T21:37:33.735Z,17.20
2023-04-09T21:42:37.065Z,17.10
2023-04-09T21:47:40.605Z,17.10
2023-04-09T21:52:47.309Z,16.90
2023-04-09T21:57:52.902Z,16.80
2023-04-09T22:03:01.152Z,16.60
2023-04-09T22:08:06.187Z,16.40
2023-04-09T22:13:09.510Z,16.20
2023-04-09T22:18:12.865Z,16.10
2023-04-09T22:23:17.541Z,15.90
2023-04-09T22:28:20.896Z,15.80
